sensor_id;sensor_type;location;lat;lon;timestamp;P1;durP1;ratioP1;P2;durP2;ratioP2
5878;SDS011;2965;42.640;23.370;2023-08-17T04:01:42;17.30;;;5.30;;
5878;SDS011;2965;42.640;23.370;2023-08-17T04:04:08;4.70;;;4.50;;
5878;SDS011;2965;42.640;23.370;2023-08-17T04:06:34;7.90;;;4.43;;
5878;SDS011;2965;42.640;23.370;2023-08-17T04:09:00;4.83;;;4.47;;
5878;SDS011;2965;42.640;23.370;2023-08-17T04:11:26;8.60;;;6.00;;
5878;SDS011;2965;42.640;23.370;2023-08-17T04:13:51;5.00;;;4.60;;
5878;SDS011;2965;42.640;23.370;2023-08-17T04:16:16;5.80;;;5.30;;
5878;SDS011;2965;42.640;23.370;2023-08-17T04:18:42;4.83;;;4.63;;
5878;SDS011;2965;42.640;23.370;2023-08-17T04:21:07;4.73;;;4.33;;
5878;SDS011;2965;42.640;23.370;2023-08-17T04:23:33;5.93;;;4.80;;
5878;SDS011;2965;42.640;23.370;2023-08-17T04:25:58;4.97;;;4.67;;
5878;SDS011;2965;42.640;23.370;2023-08-17T04:28:23;9.63;;;4.47;;
5878;SDS011;2965;42.640;23.370;2023-08-17T04:30:49;5.53;;;5.10;;
5878;SDS011;2965;42.640;23.370;2023-08-17T04:33:14;5.97;;;4.23;;
5878;SDS011;2965;42.640;23.370;2023-08-17T04:35:39;4.40;;;4.20;;
5878;SDS011;2965;42.640;23.370;2023-08-17T04:38:05;5.93;;;4.80;;
5878;SDS011;2965;42.640;23.370;2023-08-17T04:40:31;5.93;;;4.50;;
5878;SDS011;2965;42.640;23.370;2023-08-17T04:42:57;4.53;;;4.13;;
5878;SDS011;2965;42.640;23.370;2023-08-17T04:45:22;4.30;;;4.00;;
5878;SDS011;2965;42.640;23.370;2023-08-17T04:47:48;5.00;;;4.60;;
5878;SDS011;2965;42.640;23.370;2023-08-17T04:52:46;3.93;;;3.73;;
5878;SDS011;2965;42.640;23.370;2023-08-17T04:55:13;4.70;;;4.30;;
5878;SDS011;2965;42.640;23.370;2023-08-17T04:57:39;4.30;;;4.00;;
5878;SDS011;2965;42.640;23.370;2023-08-17T05:00:04;10.73;;;4.40;;
5878;SDS011;2965;42.640;23.370;2023-08-17T05:02:34;5.77;;;4.33;;
5878;SDS011;2965;42.640;23.370;2023-08-17T05:04:59;5.33;;;4.40;;
5878;SDS011;2965;42.640;23.370;2023-08-17T05:07:24;4.87;;;4.23;;
5878;SDS011;2965;42.640;23.370;2023-08-17T05:12:20;4.83;;;4.53;;
5878;SDS011;2965;42.640;23.370;2023-08-17T05:14:46;5.13;;;4.30;;
5878;SDS011;2965;42.640;23.370;2023-08-17T05:17:11;14.07;;;4.37;;
5878;SDS011;2965;42.640;23.370;2023-08-17T05:19:36;11.50;;;4.20;;
5878;SDS011;2965;42.640;23.370;2023-08-17T05:22:03;4.07;;;3.87;;
5878;SDS011;2965;42.640;23.370;2023-08-17T05:24:28;10.73;;;4.13;;
5878;SDS011;2965;42.640;23.370;2023-08-17T05:26:54;5.30;;;4.37;;
5878;SDS011;2965;42.640;23.370;2023-08-17T05:29:19;7.73;;;5.70;;
5878;SDS011;2965;42.640;23.370;2023-08-17T05:31:44;5.63;;;5.13;;
5878;SDS011;2965;42.640;23.370;2023-08-17T05:34:10;4.47;;;4.07;;
5878;SDS011;2965;42.640;23.370;2023-08-17T05:36:35;4.90;;;4.70;;
5878;SDS011;2965;42.640;23.370;2023-08-17T05:39:01;9.90;;;5.50;;
5878;SDS011;2965;42.640;23.370;2023-08-17T05:41:26;7.13;;;4.83;;
5878;SDS011;2965;42.640;23.370;2023-08-17T05:43:52;5.30;;;4.30;;
5878;SDS011;2965;42.640;23.370;2023-08-17T05:46:17;4.83;;;4.43;;
5878;SDS011;2965;42.640;23.370;2023-08-17T05:48:42;8.83;;;6.63;;
5878;SDS011;2965;42.640;23.370;2023-08-17T05:51:08;5.70;;;5.20;;
5878;SDS011;2965;42.640;23.370;2023-08-17T05:53:33;5.60;;;5.10;;
5878;SDS011;2965;42.640;23.370;2023-08-17T05:55:58;4.97;;;4.07;;
5878;SDS011;2965;42.640;23.370;2023-08-17T05:58:24;8.83;;;4.80;;
5878;SDS011;2965;42.640;23.370;2023-08-17T06:00:49;5.30;;;4.43;;
5878;SDS011;2965;42.640;23.370;2023-08-17T06:03:15;9.53;;;4.97;;
5878;SDS011;2965;42.640;23.370;2023-08-17T06:05:40;4.87;;;4.47;;
5878;SDS011;2965;42.640;23.370;2023-08-17T06:08:05;5.20;;;4.80;;
5878;SDS011;2965;42.640;23.370;2023-08-17T06:10:31;5.93;;;4.93;;
5878;SDS011;2965;42.640;23.370;2023-08-17T06:12:56;5.63;;;4.90;;
5878;SDS011;2965;42.640;23.370;2023-08-17T06:15:22;23.47;;;5.53;;
5878;SDS011;2965;42.640;23.370;2023-08-17T06:17:48;8.13;;;4.83;;
5878;SDS011;2965;42.640;23.370;2023-08-17T06:20:15;6.63;;;6.13;;
5878;SDS011;2965;42.640;23.370;2023-08-17T06:22:41;6.33;;;5.80;;
5878;SDS011;2965;42.640;23.370;2023-08-17T06:25:07;23.23;;;6.10;;
5878;SDS011;2965;42.640;23.370;2023-08-17T06:27:33;11.80;;;5.87;;
5878;SDS011;2965;42.640;23.370;2023-08-17T06:29:59;15.87;;;7.10;;
5878;SDS011;2965;42.640;23.370;2023-08-17T06:32:25;10.57;;;5.73;;
5878;SDS011;2965;42.640;23.370;2023-08-17T06:34:50;12.70;;;5.97;;
5878;SDS011;2965;42.640;23.370;2023-08-17T06:37:16;6.13;;;5.57;;
5878;SDS011;2965;42.640;23.370;2023-08-17T06:39:41;15.50;;;5.40;;
5878;SDS011;2965;42.640;23.370;2023-08-17T06:42:06;5.90;;;5.50;;
5878;SDS011;2965;42.640;23.370;2023-08-17T06:44:32;9.17;;;5.17;;
5878;SDS011;2965;42.640;23.370;2023-08-17T06:46:57;9.17;;;6.27;;
5878;SDS011;2965;42.640;23.370;2023-08-17T06:49:23;7.27;;;6.77;;
5878;SDS011;2965;42.640;23.370;2023-08-17T06:51:49;7.87;;;7.17;;
5878;SDS011;2965;42.640;23.370;2023-08-17T06:54:14;7.83;;;7.20;;
5878;SDS011;2965;42.640;23.370;2023-08-17T06:56:40;7.77;;;7.20;;
5878;SDS011;2965;42.640;23.370;2023-08-17T06:59:05;7.73;;;7.23;;
5878;SDS011;2965;42.640;23.370;2023-08-17T07:01:32;7.50;;;6.50;;
5878;SDS011;2965;42.640;23.370;2023-08-17T07:03:57;9.43;;;6.83;;
5878;SDS011;2965;42.640;23.370;2023-08-17T07:06:23;7.07;;;6.47;;
5878;SDS011;2965;42.640;23.370;2023-08-17T07:08:49;8.53;;;6.40;;
5878;SDS011;2965;42.640;23.370;2023-08-17T07:11:14;6.90;;;6.40;;
5878;SDS011;2965;42.640;23.370;2023-08-17T07:13:40;6.30;;;5.97;;
5878;SDS011;2965;42.640;23.370;2023-08-17T07:16:05;6.60;;;5.97;;
5878;SDS011;2965;42.640;23.370;2023-08-17T07:18:30;6.53;;;6.03;;
5878;SDS011;2965;42.640;23.370;2023-08-17T07:20:56;5.53;;;5.13;;
5878;SDS011;2965;42.640;23.370;2023-08-17T07:23:21;8.53;;;5.80;;
5878;SDS011;2965;42.640;23.370;2023-08-17T07:25:46;6.33;;;5.77;;
5878;SDS011;2965;42.640;23.370;2023-08-17T07:28:12;5.80;;;5.50;;
5878;SDS011;2965;42.640;23.370;2023-08-17T07:30:37;4.80;;;4.60;;
5878;SDS011;2965;42.640;23.370;2023-08-17T07:33:02;6.00;;;5.50;;
5878;SDS011;2965;42.640;23.370;2023-08-17T07:35:28;8.20;;;4.97;;
5878;SDS011;2965;42.640;23.370;2023-08-17T07:37:53;4.97;;;4.77;;
5878;SDS011;2965;42.640;23.370;2023-08-17T07:40:19;5.53;;;5.13;;
5878;SDS011;2965;42.640;23.370;2023-08-17T07:42:45;5.10;;;4.73;;
5878;SDS011;2965;42.640;23.370;2023-08-17T07:45:12;5.93;;;5.60;;
5878;SDS011;2965;42.640;23.370;2023-08-17T07:47:37;5.53;;;5.03;;
5878;SDS011;2965;42.640;23.370;2023-08-17T07:50:05;9.77;;;5.23;;
5878;SDS011;2965;42.640;23.370;2023-08-17T07:52:31;7.63;;;6.10;;
5878;SDS011;2965;42.640;23.370;2023-08-17T07:54:57;6.40;;;5.50;;
5878;SDS011;2965;42.640;23.370;2023-08-17T07:57:22;5.50;;;5.07;;
5878;SDS011;2965;42.640;23.370;2023-08-17T07:59:47;6.60;;;5.90;;
5878;SDS011;2965;42.640;23.370;2023-08-17T08:02:13;6.43;;;5.83;;
5878;SDS011;2965;42.640;23.370;2023-08-17T08:04:38;6.93;;;6.57;;
5878;SDS011;2965;42.640;23.370;2023-08-17T08:07:03;5.97;;;5.67;;
5878;SDS011;2965;42.640;23.370;2023-08-17T08:09:29;5.27;;;5.07;;
5878;SDS011;2965;42.640;23.370;2023-08-17T08:11:54;8.43;;;4.93;;
5878;SDS011;2965;42.640;23.370;2023-08-17T08:14:20;6.63;;;5.53;;
5878;SDS011;2965;42.640;23.370;2023-08-17T08:16:45;5.97;;;5.57;;
5878;SDS011;2965;42.640;23.370;2023-08-17T08:19:12;7.80;;;5.57;;
5878;SDS011;2965;42.640;23.370;2023-08-17T08:21:37;5.80;;;5.27;;
5878;SDS011;2965;42.640;23.370;2023-08-17T08:24:02;5.53;;;5.33;;
5878;SDS011;2965;42.640;23.370;2023-08-17T08:28:56;5.70;;;5.40;;
5878;SDS011;2965;42.640;23.370;2023-08-17T08:31:22;5.33;;;4.93;;
5878;SDS011;2965;42.640;23.370;2023-08-17T08:33:47;20.03;;;5.63;;
5878;SDS011;2965;42.640;23.370;2023-08-17T08:36:12;8.63;;;5.30;;
5878;SDS011;2965;42.640;23.370;2023-08-17T08:38:38;7.63;;;5.77;;
5878;SDS011;2965;42.640;23.370;2023-08-17T08:41:03;5.80;;;5.40;;
5878;SDS011;2965;42.640;23.370;2023-08-17T08:43:30;5.90;;;5.37;;
5878;SDS011;2965;42.640;23.370;2023-08-17T08:45:56;6.07;;;5.50;;
5878;SDS011;2965;42.640;23.370;2023-08-17T08:48:23;5.80;;;5.30;;
5878;SDS011;2965;42.640;23.370;2023-08-17T08:50:51;8.90;;;5.57;;
5878;SDS011;2965;42.640;23.370;2023-08-17T08:53:22;6.47;;;5.63;;
5878;SDS011;2965;42.640;23.370;2023-08-17T08:55:57;5.87;;;5.23;;
5878;SDS011;2965;42.640;23.370;2023-08-17T08:58:27;6.90;;;5.27;;
5878;SDS011;2965;42.640;23.370;2023-08-17T09:00:57;7.97;;;6.00;;
5878;SDS011;2965;42.640;23.370;2023-08-17T09:03:23;5.10;;;4.80;;
5878;SDS011;2965;42.640;23.370;2023-08-17T09:05:50;4.93;;;4.73;;
5878;SDS011;2965;42.640;23.370;2023-08-17T09:08:20;4.47;;;4.20;;
5878;SDS011;2965;42.640;23.370;2023-08-17T09:10:47;5.27;;;4.87;;
5878;SDS011;2965;42.640;23.370;2023-08-17T09:13:13;14.43;;;4.40;;
5878;SDS011;2965;42.640;23.370;2023-08-17T09:15:38;3.90;;;3.70;;
5878;SDS011;2965;42.640;23.370;2023-08-17T09:18:05;4.67;;;4.37;;
5878;SDS011;2965;42.640;23.370;2023-08-17T09:20:40;4.97;;;4.67;;
5878;SDS011;2965;42.640;23.370;2023-08-17T09:23:14;9.20;;;4.40;;
5878;SDS011;2965;42.640;23.370;2023-08-17T09:25:42;5.40;;;5.07;;
5878;SDS011;2965;42.640;23.370;2023-08-17T09:28:09;5.00;;;4.27;;
5878;SDS011;2965;42.640;23.370;2023-08-17T09:30:54;6.50;;;4.00;;
5878;SDS011;2965;42.640;23.370;2023-08-17T09:33:31;6.83;;;4.10;;
5878;SDS011;2965;42.640;23.370;2023-08-17T09:35:58;4.23;;;4.03;;
5878;SDS011;2965;42.640;23.370;2023-08-17T09:38:24;4.43;;;4.23;;
5878;SDS011;2965;42.640;23.370;2023-08-17T09:40:50;4.53;;;4.20;;
5878;SDS011;2965;42.640;23.370;2023-08-17T09:43:17;6.57;;;3.50;;
5878;SDS011;2965;42.640;23.370;2023-08-17T09:45:43;4.77;;;3.10;;
5878;SDS011;2965;42.640;23.370;2023-08-17T09:48:11;3.47;;;3.27;;
5878;SDS011;2965;42.640;23.370;2023-08-17T09:50:40;3.80;;;3.70;;
5878;SDS011;2965;42.640;23.370;2023-08-17T09:53:07;3.20;;;3.00;;
5878;SDS011;2965;42.640;23.370;2023-08-17T09:55:32;3.60;;;3.30;;
5878;SDS011;2965;42.640;23.370;2023-08-17T09:58:02;6.60;;;3.70;;
5878;SDS011;2965;42.640;23.370;2023-08-17T10:00:28;8.37;;;3.97;;
5878;SDS011;2965;42.640;23.370;2023-08-17T10:02:55;4.03;;;3.73;;
5878;SDS011;2965;42.640;23.370;2023-08-17T10:05:23;4.43;;;4.13;;
5878;SDS011;2965;42.640;23.370;2023-08-17T10:07:53;3.37;;;2.90;;
5878;SDS011;2965;42.640;23.370;2023-08-17T10:10:22;5.87;;;3.10;;
5878;SDS011;2965;42.640;23.370;2023-08-17T10:16:09;4.13;;;3.83;;
5878;SDS011;2965;42.640;23.370;2023-08-17T10:18:44;3.53;;;3.33;;
5878;SDS011;2965;42.640;23.370;2023-08-17T10:21:16;3.60;;;3.50;;
5878;SDS011;2965;42.640;23.370;2023-08-17T10:23:47;3.47;;;3.27;;
5878;SDS011;2965;42.640;23.370;2023-08-17T10:26:13;3.27;;;2.87;;
5878;SDS011;2965;42.640;23.370;2023-08-17T10:28:39;2.93;;;2.83;;
5878;SDS011;2965;42.640;23.370;2023-08-17T10:31:06;2.73;;;2.60;;
5878;SDS011;2965;42.640;23.370;2023-08-17T10:33:32;4.27;;;3.10;;
5878;SDS011;2965;42.640;23.370;2023-08-17T10:36:00;2.40;;;2.30;;
5878;SDS011;2965;42.640;23.370;2023-08-17T10:38:26;3.00;;;2.80;;
5878;SDS011;2965;42.640;23.370;2023-08-17T10:46:21;3.03;;;2.93;;
5878;SDS011;2965;42.640;23.370;2023-08-17T10:48:47;5.80;;;2.10;;
5878;SDS011;2965;42.640;23.370;2023-08-17T10:51:13;3.10;;;2.97;;
5878;SDS011;2965;42.640;23.370;2023-08-17T10:53:38;2.60;;;2.50;;
5878;SDS011;2965;42.640;23.370;2023-08-17T10:56:10;2.73;;;2.63;;
5878;SDS011;2965;42.640;23.370;2023-08-17T11:01:13;5.10;;;2.40;;
5878;SDS011;2965;42.640;23.370;2023-08-17T11:03:41;5.00;;;3.07;;
5878;SDS011;2965;42.640;23.370;2023-08-17T11:06:13;2.60;;;2.50;;
5878;SDS011;2965;42.640;23.370;2023-08-17T11:08:51;3.70;;;3.40;;
5878;SDS011;2965;42.640;23.370;2023-08-17T11:11:20;2.83;;;2.73;;
5878;SDS011;2965;42.640;23.370;2023-08-17T11:13:47;3.43;;;3.13;;
5878;SDS011;2965;42.640;23.370;2023-08-17T11:16:15;3.43;;;3.23;;
5878;SDS011;2965;42.640;23.370;2023-08-17T11:18:41;3.40;;;3.20;;
5878;SDS011;2965;42.640;23.370;2023-08-17T11:21:07;4.10;;;2.87;;
5878;SDS011;2965;42.640;23.370;2023-08-17T11:23:36;2.80;;;2.60;;
5878;SDS011;2965;42.640;23.370;2023-08-17T11:26:02;2.93;;;2.83;;
5878;SDS011;2965;42.640;23.370;2023-08-17T11:28:30;3.47;;;3.27;;
5878;SDS011;2965;42.640;23.370;2023-08-17T11:31:06;3.53;;;2.83;;
5878;SDS011;2965;42.640;23.370;2023-08-17T11:33:34;3.77;;;3.37;;
5878;SDS011;2965;42.640;23.370;2023-08-17T11:36:01;3.57;;;3.30;;
5878;SDS011;2965;42.640;23.370;2023-08-17T11:38:37;2.93;;;2.83;;
5878;SDS011;2965;42.640;23.370;2023-08-17T11:41:04;4.10;;;3.80;;
5878;SDS011;2965;42.640;23.370;2023-08-17T11:43:33;4.97;;;4.33;;
5878;SDS011;2965;42.640;23.370;2023-08-17T11:45:59;9.60;;;4.43;;
5878;SDS011;2965;42.640;23.370;2023-08-17T11:48:25;3.57;;;3.40;;
5878;SDS011;2965;42.640;23.370;2023-08-17T11:50:51;4.83;;;4.40;;
5878;SDS011;2965;42.640;23.370;2023-08-17T11:53:17;7.73;;;4.37;;
5878;SDS011;2965;42.640;23.370;2023-08-17T11:55:42;4.53;;;4.33;;
5878;SDS011;2965;42.640;23.370;2023-08-17T11:58:08;4.60;;;4.20;;
5878;SDS011;2965;42.640;23.370;2023-08-17T12:00:34;4.20;;;3.90;;
5878;SDS011;2965;42.640;23.370;2023-08-17T12:03:02;4.30;;;4.20;;
5878;SDS011;2965;42.640;23.370;2023-08-17T12:05:30;6.07;;;3.87;;
5878;SDS011;2965;42.640;23.370;2023-08-17T12:07:56;3.63;;;3.53;;
5878;SDS011;2965;42.640;23.370;2023-08-17T12:10:22;4.83;;;4.50;;
5878;SDS011;2965;42.640;23.370;2023-08-17T12:12:47;3.53;;;3.23;;
5878;SDS011;2965;42.640;23.370;2023-08-17T12:15:14;11.00;;;4.40;;
5878;SDS011;2965;42.640;23.370;2023-08-17T12:17:48;3.80;;;3.70;;
5878;SDS011;2965;42.640;23.370;2023-08-17T12:20:18;4.63;;;4.33;;
5878;SDS011;2965;42.640;23.370;2023-08-17T12:22:45;3.93;;;3.60;;
5878;SDS011;2965;42.640;23.370;2023-08-17T12:25:11;4.33;;;4.03;;
5878;SDS011;2965;42.640;23.370;2023-08-17T12:27:36;4.00;;;3.80;;
5878;SDS011;2965;42.640;23.370;2023-08-17T12:30:02;4.40;;;4.10;;
5878;SDS011;2965;42.640;23.370;2023-08-17T12:32:27;4.20;;;3.67;;
5878;SDS011;2965;42.640;23.370;2023-08-17T12:34:53;4.63;;;4.33;;
5878;SDS011;2965;42.640;23.370;2023-08-17T12:37:19;4.50;;;4.17;;
5878;SDS011;2965;42.640;23.370;2023-08-17T12:39:48;5.27;;;4.20;;
5878;SDS011;2965;42.640;23.370;2023-08-17T12:42:13;6.83;;;3.77;;
5878;SDS011;2965;42.640;23.370;2023-08-17T12:44:39;4.30;;;4.10;;
5878;SDS011;2965;42.640;23.370;2023-08-17T12:47:05;5.00;;;4.60;;
5878;SDS011;2965;42.640;23.370;2023-08-17T12:49:31;5.07;;;3.93;;
5878;SDS011;2965;42.640;23.370;2023-08-17T12:51:56;3.97;;;3.87;;
5878;SDS011;2965;42.640;23.370;2023-08-17T12:54:21;6.00;;;4.20;;
5878;SDS011;2965;42.640;23.370;2023-08-17T12:56:47;14.83;;;4.17;;
5878;SDS011;2965;42.640;23.370;2023-08-17T12:59:12;4.80;;;4.70;;
5878;SDS011;2965;42.640;23.370;2023-08-17T13:01:38;9.83;;;4.30;;
5878;SDS011;2965;42.640;23.370;2023-08-17T13:04:04;4.07;;;3.97;;
5878;SDS011;2965;42.640;23.370;2023-08-17T13:06:30;4.60;;;4.50;;
5878;SDS011;2965;42.640;23.370;2023-08-17T13:08:55;7.87;;;4.27;;
5878;SDS011;2965;42.640;23.370;2023-08-17T13:11:20;5.60;;;5.30;;
5878;SDS011;2965;42.640;23.370;2023-08-17T13:13:46;6.20;;;4.23;;
5878;SDS011;2965;42.640;23.370;2023-08-17T13:16:11;5.90;;;4.10;;
5878;SDS011;2965;42.640;23.370;2023-08-17T13:18:37;4.87;;;4.67;;
5878;SDS011;2965;42.640;23.370;2023-08-17T13:21:02;4.97;;;4.70;;
5878;SDS011;2965;42.640;23.370;2023-08-17T13:23:28;4.73;;;4.63;;
5878;SDS011;2965;42.640;23.370;2023-08-17T13:25:53;5.17;;;4.90;;
5878;SDS011;2965;42.640;23.370;2023-08-17T13:28:19;5.10;;;4.80;;
5878;SDS011;2965;42.640;23.370;2023-08-17T13:30:44;4.30;;;4.00;;
5878;SDS011;2965;42.640;23.370;2023-08-17T13:33:10;5.60;;;5.20;;
5878;SDS011;2965;42.640;23.370;2023-08-17T13:35:36;5.50;;;5.10;;
5878;SDS011;2965;42.640;23.370;2023-08-17T13:38:01;4.50;;;4.30;;
5878;SDS011;2965;42.640;23.370;2023-08-17T13:40:29;5.00;;;4.77;;
5878;SDS011;2965;42.640;23.370;2023-08-17T13:42:55;4.63;;;4.53;;
5878;SDS011;2965;42.640;23.370;2023-08-17T13:45:20;5.27;;;5.07;;
5878;SDS011;2965;42.640;23.370;2023-08-17T13:47:46;5.07;;;4.80;;
5878;SDS011;2965;42.640;23.370;2023-08-17T13:50:11;5.60;;;5.03;;
5878;SDS011;2965;42.640;23.370;2023-08-17T13:52:37;6.33;;;5.17;;
5878;SDS011;2965;42.640;23.370;2023-08-17T13:55:02;5.73;;;5.23;;
5878;SDS011;2965;42.640;23.370;2023-08-17T13:57:38;6.27;;;5.77;;
5878;SDS011;2965;42.640;23.370;2023-08-17T14:00:04;6.27;;;6.00;;
5878;SDS011;2965;42.640;23.370;2023-08-17T14:02:30;5.50;;;5.00;;
5878;SDS011;2965;42.640;23.370;2023-08-17T14:04:56;11.17;;;5.60;;
5878;SDS011;2965;42.640;23.370;2023-08-17T14:07:22;9.30;;;5.77;;
5878;SDS011;2965;42.640;23.370;2023-08-17T14:09:47;5.30;;;4.90;;
5878;SDS011;2965;42.640;23.370;2023-08-17T14:12:12;6.20;;;5.10;;
5878;SDS011;2965;42.640;23.370;2023-08-17T14:14:38;6.53;;;5.93;;
5878;SDS011;2965;42.640;23.370;2023-08-17T14:17:03;5.00;;;4.73;;
5878;SDS011;2965;42.640;23.370;2023-08-17T14:19:29;5.13;;;4.90;;
5878;SDS011;2965;42.640;23.370;2023-08-17T14:21:54;5.60;;;5.30;;
5878;SDS011;2965;42.640;23.370;2023-08-17T14:24:20;5.10;;;4.70;;
5878;SDS011;2965;42.640;23.370;2023-08-17T14:26:45;5.20;;;4.90;;
5878;SDS011;2965;42.640;23.370;2023-08-17T14:29:10;5.00;;;4.70;;
5878;SDS011;2965;42.640;23.370;2023-08-17T14:31:36;4.93;;;4.73;;
5878;SDS011;2965;42.640;23.370;2023-08-17T14:34:01;5.40;;;5.13;;
5878;SDS011;2965;42.640;23.370;2023-08-17T14:36:27;5.67;;;5.47;;
5878;SDS011;2965;42.640;23.370;2023-08-17T14:38:52;11.27;;;6.10;;
5878;SDS011;2965;42.640;23.370;2023-08-17T14:41:18;6.43;;;5.97;;
5878;SDS011;2965;42.640;23.370;2023-08-17T14:43:43;5.73;;;5.43;;
5878;SDS011;2965;42.640;23.370;2023-08-17T14:46:08;11.33;;;5.80;;
5878;SDS011;2965;42.640;23.370;2023-08-17T14:48:34;6.70;;;5.43;;
5878;SDS011;2965;42.640;23.370;2023-08-17T14:50:59;5.80;;;5.50;;
5878;SDS011;2965;42.640;23.370;2023-08-17T14:53:25;5.13;;;4.93;;
5878;SDS011;2965;42.640;23.370;2023-08-17T14:55:50;6.13;;;5.83;;
5878;SDS011;2965;42.640;23.370;2023-08-17T14:58:16;5.07;;;4.87;;
5878;SDS011;2965;42.640;23.370;2023-08-17T15:00:44;5.83;;;5.30;;
5878;SDS011;2965;42.640;23.370;2023-08-17T15:03:09;7.70;;;5.20;;
5878;SDS011;2965;42.640;23.370;2023-08-17T15:05:35;5.13;;;4.60;;
5878;SDS011;2965;42.640;23.370;2023-08-17T15:08:03;5.10;;;4.80;;
5878;SDS011;2965;42.640;23.370;2023-08-17T15:10:29;5.20;;;5.00;;
5878;SDS011;2965;42.640;23.370;2023-08-17T15:12:54;5.30;;;5.00;;
5878;SDS011;2965;42.640;23.370;2023-08-17T15:15:20;5.13;;;4.83;;
5878;SDS011;2965;42.640;23.370;2023-08-17T15:17:45;5.27;;;4.77;;
5878;SDS011;2965;42.640;23.370;2023-08-17T15:20:11;5.60;;;5.10;;
5878;SDS011;2965;42.640;23.370;2023-08-17T15:22:36;4.60;;;4.40;;
5878;SDS011;2965;42.640;23.370;2023-08-17T15:25:01;5.27;;;4.77;;
5878;SDS011;2965;42.640;23.370;2023-08-17T15:27:27;4.70;;;4.50;;
5878;SDS011;2965;42.640;23.370;2023-08-17T15:29:53;4.70;;;4.53;;
5878;SDS011;2965;42.640;23.370;2023-08-17T15:32:18;5.87;;;5.57;;
5878;SDS011;2965;42.640;23.370;2023-08-17T15:34:44;4.87;;;4.30;;
5878;SDS011;2965;42.640;23.370;2023-08-17T15:37:09;4.73;;;4.43;;
5878;SDS011;2965;42.640;23.370;2023-08-17T15:39:34;5.40;;;5.00;;
5878;SDS011;2965;42.640;23.370;2023-08-17T15:42:00;5.10;;;4.80;;
5878;SDS011;2965;42.640;23.370;2023-08-17T15:44:25;5.80;;;5.30;;
5878;SDS011;2965;42.640;23.370;2023-08-17T15:46:51;8.20;;;4.77;;
5878;SDS011;2965;42.640;23.370;2023-08-17T15:49:16;5.40;;;5.10;;
5878;SDS011;2965;42.640;23.370;2023-08-17T15:51:42;4.80;;;4.57;;
5878;SDS011;2965;42.640;23.370;2023-08-17T15:54:07;11.50;;;5.00;;
5878;SDS011;2965;42.640;23.370;2023-08-17T15:56:33;5.53;;;4.90;;
5878;SDS011;2965;42.640;23.370;2023-08-17T15:58:58;5.67;;;5.13;;
5878;SDS011;2965;42.640;23.370;2023-08-17T16:01:23;4.97;;;4.77;;
5878;SDS011;2965;42.640;23.370;2023-08-17T16:03:49;5.20;;;4.73;;
5878;SDS011;2965;42.640;23.370;2023-08-17T16:06:14;6.83;;;4.77;;
5878;SDS011;2965;42.640;23.370;2023-08-17T16:08:41;6.37;;;5.87;;
5878;SDS011;2965;42.640;23.370;2023-08-17T16:11:10;4.63;;;4.53;;
5878;SDS011;2965;42.640;23.370;2023-08-17T16:13:37;5.90;;;4.77;;
5878;SDS011;2965;42.640;23.370;2023-08-17T16:16:02;6.43;;;4.57;;
5878;SDS011;2965;42.640;23.370;2023-08-17T16:18:28;4.63;;;4.37;;
5878;SDS011;2965;42.640;23.370;2023-08-17T16:20:53;14.33;;;4.70;;
5878;SDS011;2965;42.640;23.370;2023-08-17T16:23:19;6.93;;;5.77;;
5878;SDS011;2965;42.640;23.370;2023-08-17T16:25:45;5.03;;;4.73;;
5878;SDS011;2965;42.640;23.370;2023-08-17T16:28:10;4.77;;;4.43;;
5878;SDS011;2965;42.640;23.370;2023-08-17T16:30:35;7.80;;;4.97;;
5878;SDS011;2965;42.640;23.370;2023-08-17T16:33:02;5.20;;;4.80;;
5878;SDS011;2965;42.640;23.370;2023-08-17T16:35:29;7.80;;;5.20;;
5878;SDS011;2965;42.640;23.370;2023-08-17T16:37:54;4.90;;;4.70;;
5878;SDS011;2965;42.640;23.370;2023-08-17T16:40:20;7.53;;;5.20;;
5878;SDS011;2965;42.640;23.370;2023-08-17T16:42:45;11.80;;;4.93;;
5878;SDS011;2965;42.640;23.370;2023-08-17T16:45:11;6.00;;;5.50;;
5878;SDS011;2965;42.640;23.370;2023-08-17T16:47:37;11.40;;;5.20;;
5878;SDS011;2965;42.640;23.370;2023-08-17T16:50:03;5.53;;;5.10;;
5878;SDS011;2965;42.640;23.370;2023-08-17T16:52:28;5.87;;;5.57;;
5878;SDS011;2965;42.640;23.370;2023-08-17T16:54:54;9.20;;;4.90;;
5878;SDS011;2965;42.640;23.370;2023-08-17T16:57:19;6.70;;;5.20;;
5878;SDS011;2965;42.640;23.370;2023-08-17T16:59:44;4.70;;;4.50;;
5878;SDS011;2965;42.640;23.370;2023-08-17T17:02:10;5.90;;;5.50;;
5878;SDS011;2965;42.640;23.370;2023-08-17T17:04:35;5.63;;;5.13;;
5878;SDS011;2965;42.640;23.370;2023-08-17T17:07:01;5.13;;;4.73;;
5878;SDS011;2965;42.640;23.370;2023-08-17T17:09:27;5.60;;;4.63;;
5878;SDS011;2965;42.640;23.370;2023-08-17T17:11:53;5.80;;;5.40;;
5878;SDS011;2965;42.640;23.370;2023-08-17T17:14:18;5.67;;;5.17;;
5878;SDS011;2965;42.640;23.370;2023-08-17T17:16:44;5.63;;;5.13;;
5878;SDS011;2965;42.640;23.370;2023-08-17T17:19:09;5.97;;;5.33;;
5878;SDS011;2965;42.640;23.370;2023-08-17T17:21:35;13.03;;;6.23;;
5878;SDS011;2965;42.640;23.370;2023-08-17T17:24:00;5.63;;;5.43;;
5878;SDS011;2965;42.640;23.370;2023-08-17T17:26:26;6.70;;;6.20;;
5878;SDS011;2965;42.640;23.370;2023-08-17T17:28:51;12.03;;;6.03;;
5878;SDS011;2965;42.640;23.370;2023-08-17T17:31:17;6.33;;;5.90;;
5878;SDS011;2965;42.640;23.370;2023-08-17T17:33:42;12.67;;;6.40;;
5878;SDS011;2965;42.640;23.370;2023-08-17T17:36:07;5.93;;;5.73;;
5878;SDS011;2965;42.640;23.370;2023-08-17T17:38:33;7.23;;;6.73;;
5878;SDS011;2965;42.640;23.370;2023-08-17T17:40:59;6.17;;;5.87;;
5878;SDS011;2965;42.640;23.370;2023-08-17T17:43:24;7.03;;;6.53;;
5878;SDS011;2965;42.640;23.370;2023-08-17T17:45:49;5.93;;;5.50;;
5878;SDS011;2965;42.640;23.370;2023-08-17T17:48:18;7.00;;;6.53;;
5878;SDS011;2965;42.640;23.370;2023-08-17T17:50:44;7.00;;;6.43;;
5878;SDS011;2965;42.640;23.370;2023-08-17T17:53:10;7.30;;;6.90;;
5878;SDS011;2965;42.640;23.370;2023-08-17T17:55:36;8.63;;;7.10;;
5878;SDS011;2965;42.640;23.370;2023-08-17T17:58:01;6.30;;;5.87;;
5878;SDS011;2965;42.640;23.370;2023-08-17T18:00:28;7.17;;;6.70;;
5878;SDS011;2965;42.640;23.370;2023-08-17T18:03:03;7.33;;;6.63;;
5878;SDS011;2965;42.640;23.370;2023-08-17T18:05:33;6.97;;;6.50;;
5878;SDS011;2965;42.640;23.370;2023-08-17T18:07:58;8.80;;;8.10;;
5878;SDS011;2965;42.640;23.370;2023-08-17T18:10:23;9.30;;;7.70;;
5878;SDS011;2965;42.640;23.370;2023-08-17T18:12:49;8.00;;;7.30;;
5878;SDS011;2965;42.640;23.370;2023-08-17T18:15:16;8.43;;;7.50;;
5878;SDS011;2965;42.640;23.370;2023-08-17T18:17:41;8.00;;;7.50;;
5878;SDS011;2965;42.640;23.370;2023-08-17T18:20:07;21.33;;;7.13;;
5878;SDS011;2965;42.640;23.370;2023-08-17T18:22:33;7.67;;;7.07;;
5878;SDS011;2965;42.640;23.370;2023-08-17T18:24:58;7.47;;;6.80;;
5878;SDS011;2965;42.640;23.370;2023-08-17T18:27:23;9.43;;;6.93;;
5878;SDS011;2965;42.640;23.370;2023-08-17T18:29:49;7.77;;;7.20;;
5878;SDS011;2965;42.640;23.370;2023-08-17T18:32:14;9.70;;;7.00;;
5878;SDS011;2965;42.640;23.370;2023-08-17T18:34:40;12.90;;;7.60;;
5878;SDS011;2965;42.640;23.370;2023-08-17T18:37:05;12.67;;;7.20;;
5878;SDS011;2965;42.640;23.370;2023-08-17T18:39:30;7.60;;;6.97;;
5878;SDS011;2965;42.640;23.370;2023-08-17T18:41:56;8.90;;;8.20;;
5878;SDS011;2965;42.640;23.370;2023-08-17T18:44:21;16.80;;;11.63;;
5878;SDS011;2965;42.640;23.370;2023-08-17T18:46:47;10.10;;;9.30;;
5878;SDS011;2965;42.640;23.370;2023-08-17T18:49:12;9.07;;;7.90;;
5878;SDS011;2965;42.640;23.370;2023-08-17T18:51:37;9.00;;;8.10;;
5878;SDS011;2965;42.640;23.370;2023-08-17T18:54:03;9.33;;;7.63;;
5878;SDS011;2965;42.640;23.370;2023-08-17T18:56:29;6.93;;;6.53;;
5878;SDS011;2965;42.640;23.370;2023-08-17T18:58:54;8.03;;;7.43;;
5878;SDS011;2965;42.640;23.370;2023-08-17T19:01:22;8.80;;;7.80;;
5878;SDS011;2965;42.640;23.370;2023-08-17T19:03:47;8.00;;;7.40;;
5878;SDS011;2965;42.640;23.370;2023-08-17T19:06:12;7.40;;;6.90;;
5878;SDS011;2965;42.640;23.370;2023-08-17T19:08:38;10.37;;;7.20;;
5878;SDS011;2965;42.640;23.370;2023-08-17T19:11:03;11.03;;;8.00;;
5878;SDS011;2965;42.640;23.370;2023-08-17T19:13:29;12.47;;;7.53;;